Thousand Palms, CA (92276)

6:33 PM PDT en Octubre 21, 2014 (GMT -0700)
DesertWeather com | Change Station
CLOSE
Current Station
Estación meteorológica personal
Location: Thousand Palms, CA
Altura: 275 ft
Estaciones meteorológicas cercanas

Alt 275 ft 33.82 °N, 116.40 °W | Updated 2 minutes ago

Parcialmente nublado
Parcialmente nublado
85.8 ° F
Sensación térmica 83 ° F
N
9.0
Viento Variable Viento desde ONO
Gusts 0.0 mph

Hoy
Alta -- | Baja -- ° F
--% Posibilidad de precipitaciones
Ayer
Alta -- | Baja -- ° F
Precip. -- pul
6:55 AM 6:04 PM
Creciente menguante, 3% visible
Presión 29.75 pul
Visibilidad 10.0 Millas
Nubes Nubes dispersas 20000 ft
Índice de calor 83 ° F
Punto de rocío 40 ° F
Humedad 20%
Precipitaciones 0.00 pul
Espesor de la nieve No disponible.
UV 0 de una escala de 12
Polen 3.40 de una escala de 12
Ozono Buena
Flu Activity Sporadic
METAR KPSP 220053Z 31011KT 10SM SCT200 32/02 A2975 RMK AO2 SLP072 T03220022 $

More Conditions Fewer Conditions

Presión 29.75 pul
Visibilidad 10.0 Millas
Nubes Nubes dispersas 20000 ft
Índice de calor 83 ° F
Punto de rocío 40 ° F
Humedad 20%
Precipitaciones 0.00 pul
Espesor de la nieve No disponible.
UV 0 de una escala de 12
Polen 3.40 de una escala de 12
Ozono Buena
Flu Activity Sporadic
METAR KPSP 220053Z 31011KT 10SM SCT200 32/02 A2975 RMK AO2 SLP072 T03220022 $

More Conditions Fewer Conditions

10-Day Weather Forecast

Almanac

Astronomía

Oct. 21, 2014 Salida Puesta
Hora real 6:55 AM PDT 6:04 PM PDT
Crepúsculo civil 6:30 AM PDT 6:29 PM PDT
Crepúsculo náutico 6:00 AM PDT 6:58 PM PDT
Crepúsculo astronómico 5:31 AM PDT 7:27 PM PDT
Luna 4:49 AM PDT (10/21) 4:56 PM PDT (10/21)
Horas de luz 11h 59m
Horas de luz
11h 09m
Tomorrow will be 1m 57s shorter.
Creciente menguante, 3% of the Moon is Illuminated
Hoy
Creciente menguante
Oct 23
Nueva
Oct 30
Cuarto creciente
Nov 6
Luna llena
Nov 14
Cuarto menguante

Extremos de hoy

Máximos del estado Bajos del estado

Community

WunderPhotos

Upload Photos

1,763,844 ¡fotos cargadas!

Nearby

Calidad del aire

  Calidad del aire Índice AQ Contaminante
Ayer Moderada
OZONE
Ayer Buena
PM10
Real Buena
OZONE
Miércoles Moderada
OZONE
Miércoles Buena
PM10
Miércoles Buena
CO
Miércoles Buena
NO2

Grosos de nieve

Estación Profundido Altura
Leavitt Meadows 0 in 7200 ft
Blue Lakes 0 in 8000 ft
Echo Peak 0 in 7800 ft
Ward Creek #3 1 in 6750 ft
Adin Mountain 0 in 6200 ft

Actividad de terremotos

Ciudad Distance Mag. Tiempo y dato
No hay informes recientes de la actividad sísmica.
Magnitud mínima muestra es 2,5.

Temperaturas de aguas costeras

Lugar Temperatura
Sin partes meteorológicos de las estaciones

Estaciones meteorológicas cercanas